createdAt,value
2018-06-01T00:01:56.634Z,19.60
2018-06-01T00:04:24.233Z,19.60
2018-06-01T00:06:51.852Z,19.60
2018-06-01T00:09:19.476Z,19.60
2018-06-01T00:11:47.084Z,19.60
2018-06-01T00:14:15.468Z,19.60
2018-06-01T00:16:43.865Z,19.70
2018-06-01T00:19:11.535Z,19.60
2018-06-01T00:21:39.115Z,19.70
2018-06-01T00:24:06.749Z,19.70
2018-06-01T00:26:34.383Z,19.70
2018-06-01T00:29:02.792Z,19.50
2018-06-01T00:31:30.405Z,19.50
2018-06-01T00:33:58.015Z,19.40
2018-06-01T00:36:25.633Z,19.20
2018-06-01T00:38:53.271Z,19.20
2018-06-01T00:41:20.939Z,19.20
2018-06-01T00:43:48.582Z,19.20
2018-06-01T00:46:16.193Z,19.20
2018-06-01T00:48:44.545Z,19.30
2018-06-01T00:51:12.135Z,19.30
2018-06-01T00:53:40.541Z,19.40
2018-06-01T00:56:08.107Z,19.30
2018-06-01T00:58:35.717Z,19.40
2018-06-01T01:01:03.343Z,19.40
2018-06-01T01:03:30.966Z,19.40
2018-06-01T01:05:59.309Z,19.50
2018-06-01T01:08:26.944Z,19.40
2018-06-01T01:10:54.537Z,19.50
2018-06-01T01:13:22.161Z,19.60
2018-06-01T01:15:49.715Z,19.60
2018-06-01T01:18:17.321Z,19.60
2018-06-01T01:20:44.912Z,19.60
2018-06-01T01:23:12.535Z,19.60
2018-06-01T01:25:40.174Z,19.60
2018-06-01T01:28:07.760Z,19.60
2018-06-01T01:30:35.358Z,19.60
2018-06-01T01:33:02.968Z,19.60
2018-06-01T01:35:30.582Z,19.60
2018-06-01T01:37:58.160Z,19.60
2018-06-01T01:40:25.741Z,19.60
2018-06-01T01:42:53.503Z,19.60
2018-06-01T01:45:21.062Z,19.60
2018-06-01T01:47:48.664Z,19.60
2018-06-01T01:50:16.294Z,19.60
2018-06-01T01:52:43.908Z,19.50
2018-06-01T01:55:11.534Z,19.50
2018-06-01T01:57:39.133Z,19.50
2018-06-01T02:00:06.709Z,19.50
2018-06-01T02:02:34.326Z,19.50
2018-06-01T02:05:02.707Z,19.40
2018-06-01T02:07:31.115Z,19.40
2018-06-01T02:09:58.695Z,19.40
2018-06-01T02:12:26.279Z,19.40
2018-06-01T02:14:53.889Z,19.40
2018-06-01T02:17:21.461Z,19.40
2018-06-01T02:19:49.045Z,19.40
2018-06-01T02:22:16.738Z,19.30
2018-06-01T02:24:44.373Z,19.20
2018-06-01T02:27:11.983Z,19.10
2018-06-01T02:29:40.527Z,19.10
2018-06-01T02:32:08.294Z,19.00
2018-06-01T02:34:35.904Z,19.00
2018-06-01T02:37:03.495Z,19.00
2018-06-01T02:39:31.051Z,19.00
2018-06-01T02:41:58.681Z,18.90
2018-06-01T02:44:26.244Z,18.90
2018-06-01T02:46:53.869Z,18.90
2018-06-01T02:49:21.440Z,18.90
2018-06-01T02:51:49.055Z,18.80
2018-06-01T02:54:17.631Z,18.80
2018-06-01T02:56:45.239Z,18.80
2018-06-01T02:59:13.067Z,18.80
2018-06-01T03:01:40.678Z,18.80
2018-06-01T03:04:09.030Z,18.70
2018-06-01T03:06:44.351Z,18.70
2018-06-01T03:09:11.978Z,18.60
2018-06-01T03:11:39.608Z,18.60
2018-06-01T03:14:07.254Z,18.60
2018-06-01T03:16:34.868Z,18.60
2018-06-01T03:19:02.506Z,18.60
2018-06-01T03:21:30.851Z,18.60
2018-06-01T03:23:58.459Z,18.60
2018-06-01T03:26:26.842Z,18.60
2018-06-01T03:28:54.410Z,18.60
2018-06-01T03:31:22.026Z,18.60
2018-06-01T03:33:49.650Z,18.60
2018-06-01T03:36:17.194Z,18.60
2018-06-01T03:38:44.799Z,18.60
2018-06-01T03:41:12.410Z,18.50
2018-06-01T03:43:40.018Z,18.50
2018-06-01T03:46:07.632Z,18.50
2018-06-01T03:48:35.226Z,18.50
2018-06-01T03:51:02.838Z,18.50
2018-06-01T03:53:31.231Z,18.40
2018-06-01T03:55:58.817Z,18.40
2018-06-01T03:58:26.410Z,18.40
2018-06-01T04:00:54.000Z,18.40
2018-06-01T04:03:21.610Z,18.40
2018-06-01T04:05:49.207Z,18.40
2018-06-01T04:08:17.584Z,18.30
2018-06-01T04:10:45.946Z,18.30
2018-06-01T04:13:15.146Z,18.20
2018-06-01T04:15:42.738Z,18.30
2018-06-01T04:18:10.362Z,18.20
2018-06-01T04:20:37.976Z,18.20
2018-06-01T04:23:06.010Z,18.20
2018-06-01T04:25:33.592Z,18.10
2018-06-01T04:28:01.964Z,18.10
2018-06-01T04:30:29.604Z,18.00
2018-06-01T04:32:57.168Z,18.00
2018-06-01T04:35:25.133Z,18.10
2018-06-01T04:37:52.742Z,18.10
2018-06-01T04:40:20.327Z,18.10
2018-06-01T04:42:48.190Z,18.20
2018-06-01T04:45:15.819Z,18.20
2018-06-01T04:47:43.474Z,18.30
2018-06-01T04:50:11.059Z,18.30
2018-06-01T04:52:38.697Z,18.40
2018-06-01T04:55:06.339Z,18.40
2018-06-01T04:57:34.744Z,18.60
2018-06-01T05:00:02.361Z,18.60
2018-06-01T05:02:29.978Z,18.60
2018-06-01T05:04:57.620Z,18.60
2018-06-01T05:07:25.246Z,18.60
2018-06-01T05:09:52.884Z,18.70
2018-06-01T05:12:20.484Z,18.80
2018-06-01T05:14:48.865Z,19.00
2018-06-01T05:17:17.222Z,19.00
2018-06-01T05:19:44.854Z,19.00
2018-06-01T05:22:12.444Z,19.10
2018-06-01T05:24:40.811Z,19.30
2018-06-01T05:27:08.525Z,19.30
2018-06-01T05:29:36.162Z,19.40
2018-06-01T05:32:03.760Z,19.30
2018-06-01T05:34:31.320Z,19.30
2018-06-01T05:36:58.919Z,19.30
2018-06-01T05:39:26.515Z,19.30
2018-06-01T05:41:54.112Z,19.30
2018-06-01T05:44:21.710Z,19.30
2018-06-01T05:46:49.341Z,19.30
2018-06-01T05:49:16.959Z,19.20
2018-06-01T05:51:45.326Z,19.30
2018-06-01T05:54:12.960Z,19.30
2018-06-01T05:56:40.724Z,19.30
2018-06-01T05:59:08.355Z,19.30
2018-06-01T06:01:35.970Z,19.40
2018-06-01T06:04:03.575Z,19.50
2018-06-01T06:06:31.189Z,19.50
2018-06-01T06:08:58.816Z,19.70
2018-06-01T06:11:26.383Z,19.80
2018-06-01T06:13:53.995Z,19.90
2018-06-01T06:16:22.329Z,20.30
2018-06-01T06:18:49.947Z,20.30
2018-06-01T06:21:17.534Z,20.30
2018-06-01T06:23:45.189Z,20.40
2018-06-01T06:26:12.770Z,20.40
2018-06-01T06:28:40.988Z,20.30
2018-06-01T06:31:08.657Z,20.30
2018-06-01T06:33:36.300Z,20.40
2018-06-01T06:36:04.695Z,21.30
2018-06-01T06:38:33.058Z,22.00
2018-06-01T06:41:01.419Z,22.50
2018-06-01T06:43:29.054Z,22.50
2018-06-01T06:45:56.687Z,23.20
2018-06-01T06:48:24.273Z,23.60
2018-06-01T06:50:51.856Z,23.40
2018-06-01T06:53:19.445Z,23.20
2018-06-01T06:55:47.061Z,22.90
2018-06-01T06:58:14.686Z,22.30
2018-06-01T07:00:42.292Z,21.90
2018-06-01T07:03:09.915Z,21.90
2018-06-01T07:05:37.537Z,22.10
2018-06-01T07:08:05.176Z,22.00
2018-06-01T07:10:32.800Z,22.00
2018-06-01T07:13:00.399Z,21.80
2018-06-01T07:15:27.992Z,21.60
2018-06-01T07:17:56.368Z,21.30
2018-06-01T07:20:24.766Z,21.30
2018-06-01T07:22:53.102Z,21.40
2018-06-01T07:25:20.732Z,21.40
2018-06-01T07:27:48.388Z,21.50
2018-06-01T07:30:17.435Z,21.40
2018-06-01T07:32:45.832Z,21.60
2018-06-01T07:35:13.457Z,21.60
2018-06-01T07:37:41.090Z,21.80
2018-06-01T07:40:08.712Z,22.00
2018-06-01T07:42:37.094Z,22.00
2018-06-01T07:45:04.726Z,22.00
2018-06-01T07:47:32.382Z,21.90
2018-06-01T07:50:00.171Z,21.60
2018-06-01T07:52:28.533Z,21.20
2018-06-01T07:54:56.127Z,21.20
2018-06-01T07:57:23.737Z,20.90
2018-06-01T07:59:51.297Z,20.70
2018-06-01T08:02:18.919Z,20.50
2018-06-01T08:04:46.499Z,20.50
2018-06-01T08:07:14.136Z,20.60
2018-06-01T08:09:41.751Z,20.70
2018-06-01T08:12:09.355Z,20.70
2018-06-01T08:14:36.997Z,20.80
2018-06-01T08:17:04.597Z,20.70
2018-06-01T08:19:32.197Z,20.80
2018-06-01T08:21:59.816Z,21.10
2018-06-01T08:24:27.383Z,21.40
2018-06-01T08:26:55.020Z,21.40
2018-06-01T08:29:23.365Z,21.60
2018-06-01T08:31:51.113Z,21.60
2018-06-01T08:34:18.727Z,21.70
2018-06-01T08:36:46.339Z,21.70
2018-06-01T08:39:13.944Z,21.70
2018-06-01T08:41:41.531Z,21.80
2018-06-01T08:44:09.093Z,21.70
2018-06-01T08:46:36.711Z,21.70
2018-06-01T08:49:04.362Z,21.70
2018-06-01T08:51:32.745Z,21.90
2018-06-01T08:54:00.374Z,21.90
2018-06-01T08:56:27.997Z,22.10
2018-06-01T08:58:55.600Z,22.20
2018-06-01T09:01:23.213Z,22.60
2018-06-01T09:03:50.829Z,23.00
2018-06-01T09:06:18.471Z,23.60
2018-06-01T09:08:46.051Z,24.20
2018-06-01T09:11:13.691Z,24.40
2018-06-01T09:13:41.315Z,24.40
2018-06-01T09:16:08.966Z,24.30
2018-06-01T09:18:37.355Z,24.70
2018-06-01T09:21:04.983Z,24.70
2018-06-01T09:23:32.577Z,24.70
2018-06-01T09:26:00.219Z,24.90
2018-06-01T09:28:27.868Z,25.10
2018-06-01T09:30:55.464Z,24.90
2018-06-01T09:33:23.078Z,24.60
2018-06-01T09:35:51.411Z,23.90
2018-06-01T09:38:19.031Z,23.90
2018-06-01T09:40:46.643Z,23.80
2018-06-01T09:43:14.243Z,23.90
2018-06-01T09:45:42.083Z,24.40
2018-06-01T09:48:09.660Z,24.80
2018-06-01T09:50:37.303Z,24.80
2018-06-01T09:53:04.903Z,24.80
2018-06-01T09:55:32.541Z,24.90
2018-06-01T09:58:00.134Z,24.90
2018-06-01T10:00:34.191Z,24.60
2018-06-01T10:03:01.755Z,24.60
2018-06-01T10:05:29.368Z,24.90
2018-06-01T10:07:57.734Z,25.00
2018-06-01T10:10:31.179Z,25.00
2018-06-01T10:12:58.766Z,25.10
2018-06-01T10:15:26.386Z,25.20
2018-06-01T10:17:54.002Z,25.40
2018-06-01T10:20:21.584Z,25.60
2018-06-01T10:22:49.980Z,25.70
2018-06-01T10:25:17.572Z,25.60
2018-06-01T10:27:45.174Z,25.50
2018-06-01T10:30:12.763Z,25.40
2018-06-01T10:32:40.410Z,25.40
2018-06-01T10:35:08.037Z,25.40
2018-06-01T10:37:35.640Z,25.60
2018-06-01T10:40:03.240Z,25.70
2018-06-01T10:42:30.898Z,25.70
2018-06-01T10:44:58.525Z,25.80
2018-06-01T10:47:26.132Z,26.10
2018-06-01T10:49:53.760Z,26.20
2018-06-01T10:52:21.344Z,26.00
2018-06-01T10:54:48.983Z,26.00
2018-06-01T10:57:16.618Z,25.80
2018-06-01T10:59:44.218Z,25.60
2018-06-01T11:02:11.814Z,25.60
2018-06-01T11:04:40.211Z,25.90
2018-06-01T11:07:08.592Z,26.10
2018-06-01T11:09:36.996Z,26.20
2018-06-01T11:12:04.607Z,26.20
2018-06-01T11:14:32.299Z,26.00
2018-06-01T11:16:59.844Z,25.80
2018-06-01T11:19:27.440Z,25.80
2018-06-01T11:21:55.049Z,25.90
2018-06-01T11:24:22.679Z,26.10
2018-06-01T11:26:50.300Z,26.10
2018-06-01T11:29:19.663Z,26.00
2018-06-01T11:31:47.276Z,25.90
2018-06-01T11:34:15.617Z,26.90
2018-06-01T11:36:43.264Z,26.80
2018-06-01T11:39:10.880Z,27.00
2018-06-01T11:41:38.477Z,27.00
2018-06-01T11:44:06.076Z,27.50
2018-06-01T11:46:34.479Z,27.00
2018-06-01T11:49:02.088Z,27.00
2018-06-01T11:51:29.724Z,26.90
2018-06-01T11:53:57.334Z,27.00
2018-06-01T11:56:25.702Z,27.90
2018-06-01T11:58:53.315Z,27.80
2018-06-01T12:01:20.925Z,27.30
2018-06-01T12:03:48.527Z,27.20
2018-06-01T12:06:16.935Z,27.50
2018-06-01T12:08:44.523Z,27.50
2018-06-01T12:11:12.240Z,27.70
2018-06-01T12:13:39.742Z,28.20
2018-06-01T12:16:07.345Z,28.20
2018-06-01T12:18:34.929Z,29.00
2018-06-01T12:21:02.597Z,29.10
2018-06-01T12:23:30.185Z,29.80
2018-06-01T12:25:57.811Z,30.90
2018-06-01T12:28:25.457Z,29.80
2018-06-01T12:30:53.077Z,29.20
2018-06-01T12:33:20.631Z,29.30
2018-06-01T12:35:48.257Z,29.80
2018-06-01T12:38:15.906Z,30.10
2018-06-01T12:40:43.694Z,30.80
2018-06-01T12:43:11.257Z,30.10
2018-06-01T12:45:38.895Z,28.90
2018-06-01T12:48:06.469Z,28.40
2018-06-01T12:50:34.034Z,28.00
2018-06-01T12:53:01.627Z,28.50
2018-06-01T12:55:30.035Z,28.80
2018-06-01T12:57:57.647Z,28.70
2018-06-01T13:00:25.295Z,28.50
2018-06-01T13:02:52.921Z,28.10
2018-06-01T13:05:20.527Z,27.90
2018-06-01T13:07:48.126Z,28.00
2018-06-01T13:10:15.722Z,28.10
2018-06-01T13:12:43.321Z,28.60
2018-06-01T13:15:10.946Z,28.50
2018-06-01T13:17:38.619Z,28.20
2018-06-01T13:20:06.217Z,28.80
2018-06-01T13:22:33.805Z,28.80
2018-06-01T13:25:01.425Z,28.50
2018-06-01T13:27:29.063Z,28.00
2018-06-01T13:29:56.709Z,27.80
2018-06-01T13:32:25.030Z,27.50
2018-06-01T13:34:53.411Z,28.00
2018-06-01T13:37:21.023Z,28.00
2018-06-01T13:39:48.899Z,28.70
2018-06-01T13:42:16.541Z,29.10
2018-06-01T13:44:44.131Z,29.80
2018-06-01T13:47:11.745Z,30.00
2018-06-01T13:49:40.109Z,30.10
2018-06-01T13:52:07.743Z,30.20
2018-06-01T13:54:35.367Z,30.40
2018-06-01T13:57:02.975Z,30.10
2018-06-01T13:59:30.580Z,30.00
2018-06-01T14:01:58.219Z,30.40
2018-06-01T14:04:26.565Z,30.80
2018-06-01T14:06:54.122Z,30.80
2018-06-01T14:09:21.815Z,31.20
2018-06-01T14:11:49.367Z,31.40
2018-06-01T14:14:16.983Z,31.00
2018-06-01T14:16:44.606Z,30.80
2018-06-01T14:19:12.993Z,30.40
2018-06-01T14:21:41.369Z,30.50
2018-06-01T14:24:09.785Z,30.90
2018-06-01T14:26:37.445Z,30.90
2018-06-01T14:29:05.095Z,31.60
2018-06-01T14:31:32.727Z,31.60
2018-06-01T14:34:01.109Z,31.70
2018-06-01T14:36:29.466Z,31.60
2018-06-01T14:38:57.068Z,31.60
2018-06-01T14:41:24.675Z,31.50
2018-06-01T14:43:52.298Z,30.80
2018-06-01T14:46:19.926Z,30.70
2018-06-01T14:48:48.274Z,30.20
2018-06-01T14:51:15.904Z,30.20
2018-06-01T14:53:43.543Z,30.20
2018-06-01T14:56:11.187Z,30.10
2018-06-01T14:58:39.658Z,29.50
2018-06-01T15:01:07.221Z,29.50
2018-06-01T15:03:34.841Z,29.50
2018-06-01T15:06:02.441Z,29.30
2018-06-01T15:08:30.048Z,29.30
2018-06-01T15:10:57.635Z,29.50
2018-06-01T15:13:25.243Z,29.70
2018-06-01T15:15:53.590Z,29.60
2018-06-01T15:18:21.177Z,29.50
2018-06-01T15:20:49.553Z,29.40
2018-06-01T15:23:17.931Z,29.10
2018-06-01T15:25:46.360Z,29.10
2018-06-01T15:28:13.955Z,29.10
2018-06-01T15:30:42.365Z,29.20
2018-06-01T15:33:09.935Z,29.20
2018-06-01T15:35:37.549Z,28.60
2018-06-01T15:38:05.137Z,28.00
2018-06-01T15:40:33.513Z,27.60
2018-06-01T15:43:01.856Z,27.70
2018-06-01T15:45:29.464Z,27.70
2018-06-01T15:47:57.087Z,27.70
2018-06-01T15:50:24.727Z,27.70
2018-06-01T15:52:52.341Z,27.80
2018-06-01T15:55:20.785Z,27.80
2018-06-01T15:57:48.361Z,27.80
2018-06-01T16:00:15.941Z,27.70
2018-06-01T16:02:44.325Z,27.30
2018-06-01T16:05:11.925Z,27.30
2018-06-01T16:07:39.562Z,27.30
2018-06-01T16:10:08.028Z,26.90
2018-06-01T16:12:35.689Z,26.80
2018-06-01T16:15:04.053Z,26.80
2018-06-01T16:17:32.435Z,26.90
2018-06-01T16:20:01.885Z,26.90
2018-06-01T16:22:29.490Z,26.90
2018-06-01T16:24:57.090Z,26.90
2018-06-01T16:27:24.714Z,26.80
2018-06-01T16:29:53.061Z,26.60
2018-06-01T16:32:20.658Z,26.60
2018-06-01T16:34:49.084Z,26.10
2018-06-01T16:37:16.641Z,26.10
2018-06-01T16:39:44.273Z,25.90
2018-06-01T16:42:11.902Z,26.00
2018-06-01T16:44:39.542Z,26.00
2018-06-01T16:47:07.100Z,26.10
2018-06-01T16:49:34.735Z,26.40
2018-06-01T16:52:02.356Z,26.40
2018-06-01T16:54:30.759Z,26.30
2018-06-01T16:56:58.369Z,26.30
2018-06-01T16:59:25.930Z,26.40
2018-06-01T17:01:53.573Z,26.40
2018-06-01T17:04:21.169Z,26.50
2018-06-01T17:06:48.763Z,26.40
2018-06-01T17:09:16.391Z,26.30
2018-06-01T17:11:44.125Z,26.20
2018-06-01T17:14:11.744Z,26.10
2018-06-01T17:16:40.115Z,26.00
2018-06-01T17:19:08.520Z,25.90
2018-06-01T17:21:36.138Z,25.90
2018-06-01T17:24:03.772Z,26.00
2018-06-01T17:26:31.406Z,25.90
2018-06-01T17:28:59.037Z,25.80
2018-06-01T17:31:27.399Z,25.60
2018-06-01T17:33:54.951Z,25.60
2018-06-01T17:36:22.555Z,25.50
2018-06-01T17:38:50.173Z,25.50
2018-06-01T17:41:17.806Z,25.40
2018-06-01T17:43:45.417Z,25.30
2018-06-01T17:46:14.011Z,25.20
2018-06-01T17:48:41.654Z,25.20
2018-06-01T17:51:10.005Z,25.10
2018-06-01T17:53:37.759Z,25.10
2018-06-01T17:56:05.333Z,25.00
2018-06-01T17:58:32.973Z,25.00
2018-06-01T18:01:00.578Z,25.00
2018-06-01T18:03:28.144Z,24.90
2018-06-01T18:05:56.540Z,24.80
2018-06-01T18:08:24.149Z,24.80
2018-06-01T18:10:51.762Z,24.80
2018-06-01T18:13:19.398Z,24.70
2018-06-01T18:15:47.011Z,24.70
2018-06-01T18:18:14.618Z,24.60
2018-06-01T18:20:42.211Z,24.50
2018-06-01T18:23:09.901Z,24.50
2018-06-01T18:25:37.507Z,24.30
2018-06-01T18:28:05.136Z,24.20
2018-06-01T18:30:32.722Z,24.20
2018-06-01T18:33:00.314Z,24.10
2018-06-01T18:35:27.903Z,24.00
2018-06-01T18:37:55.500Z,23.90
2018-06-01T18:40:23.154Z,23.90
2018-06-01T18:42:50.784Z,23.80
2018-06-01T18:45:18.353Z,23.70
2018-06-01T18:47:45.942Z,23.60
2018-06-01T18:50:13.509Z,23.50
2018-06-01T18:52:41.123Z,23.50
2018-06-01T18:55:08.756Z,23.40
2018-06-01T18:57:36.357Z,23.40
2018-06-01T19:00:03.950Z,23.30
2018-06-01T19:02:31.552Z,23.20
2018-06-01T19:04:59.132Z,23.20
2018-06-01T19:07:26.753Z,23.10
2018-06-01T19:09:54.388Z,23.00
2018-06-01T19:12:21.970Z,23.00
2018-06-01T19:14:50.350Z,22.80
2018-06-01T19:17:18.763Z,22.70
2018-06-01T19:19:46.394Z,22.80
2018-06-01T19:22:14.004Z,22.70
2018-06-01T19:24:41.624Z,22.60
2018-06-01T19:27:09.223Z,22.60
2018-06-01T19:29:36.848Z,22.50
2018-06-01T19:32:04.442Z,22.40
2018-06-01T19:34:32.076Z,22.30
2018-06-01T19:37:00.404Z,22.10
2018-06-01T19:39:29.528Z,22.00
2018-06-01T19:41:57.172Z,22.00
2018-06-01T19:44:24.781Z,22.10
2018-06-01T19:46:52.396Z,22.00
2018-06-01T19:49:20.768Z,21.90
2018-06-01T19:51:49.906Z,21.80
2018-06-01T19:54:17.505Z,21.80
2018-06-01T19:56:45.104Z,21.90
2018-06-01T19:59:13.428Z,21.80
2018-06-01T20:01:41.077Z,21.80
2018-06-01T20:04:08.725Z,21.80
2018-06-01T20:06:36.372Z,21.70
2018-06-01T20:09:04.008Z,21.70
2018-06-01T20:11:31.592Z,21.60
2018-06-01T20:13:59.974Z,21.60
2018-06-01T20:16:27.902Z,21.60
2018-06-01T20:18:55.477Z,21.50
2018-06-01T20:21:23.053Z,21.50
2018-06-01T20:23:51.431Z,21.40
2018-06-01T20:26:19.775Z,21.40
2018-06-01T20:28:47.414Z,21.40
2018-06-01T20:31:15.055Z,21.30
2018-06-01T20:33:42.679Z,21.30
2018-06-01T20:36:10.317Z,21.20
2018-06-01T20:38:37.918Z,21.10
2018-06-01T20:41:06.283Z,21.10
2018-06-01T20:43:33.890Z,21.00
2018-06-01T20:46:01.513Z,21.00
2018-06-01T20:48:29.860Z,20.90
2018-06-01T20:50:57.611Z,20.90
2018-06-01T20:53:25.370Z,20.90
2018-06-01T20:55:52.975Z,20.80
2018-06-01T20:58:21.338Z,20.70
2018-06-01T21:00:48.960Z,20.70
2018-06-01T21:03:16.548Z,20.60
2018-06-01T21:05:44.476Z,20.50
2018-06-01T21:08:12.056Z,20.50
2018-06-01T21:10:39.664Z,20.40
2018-06-01T21:13:08.060Z,20.30
2018-06-01T21:15:36.442Z,20.20
2018-06-01T21:18:04.827Z,20.20
2018-06-01T21:20:32.413Z,20.20
2018-06-01T21:23:00.038Z,20.10
2018-06-01T21:25:27.668Z,20.10
2018-06-01T21:27:55.405Z,20.00
2018-06-01T21:30:23.032Z,20.00
2018-06-01T21:32:50.629Z,19.90
2018-06-01T21:35:18.213Z,19.90
2018-06-01T21:37:45.861Z,19.80
2018-06-01T21:40:13.498Z,19.80
2018-06-01T21:42:41.117Z,19.70
2018-06-01T21:45:12.859Z,19.70
2018-06-01T21:47:40.481Z,19.60
2018-06-01T21:50:08.080Z,19.60
2018-06-01T21:52:35.657Z,19.60
2018-06-01T21:55:04.059Z,19.50
2018-06-01T21:57:31.702Z,19.40
2018-06-01T22:00:00.094Z,19.40
2018-06-01T22:02:28.450Z,19.40
2018-06-01T22:04:56.844Z,19.30
2018-06-01T22:07:25.226Z,19.30
2018-06-01T22:09:52.840Z,19.30
2018-06-01T22:12:20.467Z,19.30
2018-06-01T22:14:48.053Z,19.30
2018-06-01T22:17:15.582Z,19.20
2018-06-01T22:19:43.161Z,19.20
2018-06-01T22:22:10.756Z,19.20
2018-06-01T22:24:38.380Z,19.10
2018-06-01T22:27:06.007Z,19.00
2018-06-01T22:29:34.346Z,19.00
2018-06-01T22:32:01.956Z,19.00
2018-06-01T22:34:29.548Z,18.90
2018-06-01T22:36:57.150Z,18.90
2018-06-01T22:39:24.764Z,18.80
2018-06-01T22:41:52.409Z,18.80
2018-06-01T22:44:20.091Z,18.80
2018-06-01T22:46:47.688Z,18.70
2018-06-01T22:49:15.322Z,18.70
2018-06-01T22:51:42.906Z,18.60
2018-06-01T22:54:10.565Z,18.60
2018-06-01T22:56:38.174Z,18.60
2018-06-01T22:59:05.781Z,18.60
2018-06-01T23:01:33.339Z,18.60
2018-06-01T23:04:00.938Z,18.50
2018-06-01T23:06:29.298Z,18.50
2018-06-01T23:08:56.891Z,18.50
2018-06-01T23:11:24.580Z,18.40
2018-06-01T23:13:52.204Z,18.40
2018-06-01T23:16:20.520Z,18.40
2018-06-01T23:18:48.113Z,18.40
2018-06-01T23:21:16.615Z,18.40
2018-06-01T23:23:45.069Z,18.40
2018-06-01T23:26:12.695Z,18.30
2018-06-01T23:28:40.300Z,18.30
2018-06-01T23:31:07.883Z,18.30
2018-06-01T23:33:36.280Z,18.10
2018-06-01T23:36:03.876Z,18.10
2018-06-01T23:38:31.482Z,18.10
2018-06-01T23:40:59.838Z,18.00
2018-06-01T23:43:27.473Z,18.00
2018-06-01T23:45:55.117Z,18.00
2018-06-01T23:48:22.729Z,18.00
2018-06-01T23:50:51.120Z,17.90
2018-06-01T23:53:19.545Z,17.90
2018-06-01T23:55:47.152Z,17.90
2018-06-01T23:58:14.727Z,18.00
